createdAt,value
2019-05-06T00:02:10.816Z,10.44
2019-05-06T00:04:37.424Z,10.45
2019-05-06T00:07:04.368Z,10.45
2019-05-06T00:09:31.072Z,10.45
2019-05-06T00:11:57.655Z,10.46
2019-05-06T00:14:24.261Z,10.45
2019-05-06T00:16:50.839Z,10.45
2019-05-06T00:19:17.425Z,10.45
2019-05-06T00:21:44.381Z,10.46
2019-05-06T00:24:11.080Z,10.46
2019-05-06T00:26:37.658Z,10.48
2019-05-06T00:29:04.578Z,10.48
2019-05-06T00:31:31.256Z,10.48
2019-05-06T00:33:57.832Z,10.49
2019-05-06T00:36:24.435Z,10.50
2019-05-06T00:38:51.023Z,10.50
2019-05-06T00:41:17.629Z,10.49
2019-05-06T00:43:44.219Z,10.49
2019-05-06T00:46:10.830Z,10.48
2019-05-06T00:48:37.394Z,10.48
2019-05-06T00:51:04.620Z,10.47
2019-05-06T00:53:31.337Z,10.47
2019-05-06T00:55:57.959Z,10.46
2019-05-06T00:58:24.539Z,10.44
2019-05-06T01:00:51.139Z,10.42
2019-05-06T01:03:17.714Z,10.42
2019-05-06T01:05:44.504Z,10.41
2019-05-06T01:08:11.170Z,10.39
2019-05-06T01:10:37.784Z,10.38
2019-05-06T01:13:04.383Z,10.36
2019-05-06T01:15:31.000Z,10.35
2019-05-06T01:17:57.569Z,10.31
2019-05-06T01:20:24.744Z,10.28
2019-05-06T01:22:51.443Z,10.25
2019-05-06T01:25:18.070Z,10.22
2019-05-06T01:27:44.629Z,10.21
2019-05-06T01:30:11.221Z,10.19
2019-05-06T01:32:37.798Z,10.18
2019-05-06T01:35:04.797Z,10.16
2019-05-06T01:37:31.556Z,10.16
2019-05-06T01:39:58.267Z,10.15
2019-05-06T01:42:24.940Z,10.14
2019-05-06T01:44:51.513Z,10.14
2019-05-06T01:47:18.103Z,10.12
2019-05-06T01:49:44.683Z,10.11
2019-05-06T01:52:11.286Z,10.10
2019-05-06T01:54:37.856Z,10.11
2019-05-06T01:57:04.752Z,10.13
2019-05-06T01:59:31.343Z,10.12
2019-05-06T02:02:01.051Z,10.12
2019-05-06T02:04:26.240Z,10.12
2019-05-06T02:06:54.606Z,10.11
2019-05-06T02:09:21.137Z,10.12
2019-05-06T02:11:48.166Z,10.12
2019-05-06T02:14:14.997Z,10.11
2019-05-06T02:16:43.519Z,10.12
2019-05-06T02:19:09.900Z,10.13
2019-05-06T02:21:36.525Z,10.13
2019-05-06T02:24:04.274Z,10.14
2019-05-06T02:26:31.081Z,10.14
2019-05-06T02:28:57.654Z,10.15
2019-05-06T02:31:25.669Z,10.16
2019-05-06T02:33:55.484Z,10.16
2019-05-06T02:36:20.824Z,10.19
2019-05-06T02:38:51.611Z,10.17
2019-05-06T02:41:15.744Z,10.16
2019-05-06T02:43:43.499Z,10.14
2019-05-06T02:46:12.876Z,10.11
2019-05-06T02:48:38.636Z,10.08
2019-05-06T02:51:05.260Z,10.04
2019-05-06T02:53:33.389Z,10.03
2019-05-06T02:56:00.162Z,10.02
2019-05-06T02:58:26.769Z,10.03
2019-05-06T03:00:53.898Z,10.02
2019-05-06T03:03:23.281Z,10.03
2019-05-06T03:05:49.133Z,10.04
2019-05-06T03:08:15.800Z,10.05
2019-05-06T03:10:44.198Z,10.04
2019-05-06T03:13:13.905Z,10.04
2019-05-06T03:15:38.999Z,10.03
2019-05-06T03:18:05.606Z,10.03
2019-05-06T03:20:32.856Z,10.03
2019-05-06T03:23:03.514Z,10.04
2019-05-06T03:25:28.815Z,10.04
2019-05-06T03:27:55.431Z,10.05
2019-05-06T03:30:25.380Z,10.04
2019-05-06T03:33:27.403Z,10.04
2019-05-06T03:35:33.149Z,10.04
2019-05-06T03:37:46.975Z,10.05
2019-05-06T03:40:13.959Z,10.03
2019-05-06T03:42:42.647Z,10.05
2019-05-06T03:45:08.977Z,10.05
2019-05-06T03:47:35.601Z,10.05
2019-05-06T03:50:04.744Z,10.06
2019-05-06T03:52:33.853Z,10.06
2019-05-06T03:54:58.813Z,10.08
2019-05-06T03:57:25.389Z,10.08
2019-05-06T03:59:52.883Z,10.09
2019-05-06T04:02:19.749Z,10.09
2019-05-06T04:04:46.366Z,10.10
2019-05-06T04:07:13.875Z,10.11
2019-05-06T04:09:43.958Z,10.12
2019-05-06T04:12:09.204Z,10.12
2019-05-06T04:14:35.859Z,10.13
2019-05-06T04:17:03.218Z,10.13
2019-05-06T04:19:33.099Z,10.14
2019-05-06T04:21:58.404Z,10.15
2019-05-06T04:24:24.998Z,10.15
2019-05-06T04:26:53.351Z,10.15
2019-05-06T04:29:19.926Z,10.16
2019-05-06T04:31:46.495Z,10.17
2019-05-06T04:34:18.285Z,10.17
2019-05-06T04:36:44.030Z,10.17
2019-05-06T04:39:12.838Z,10.18
2019-05-06T04:41:38.052Z,10.19
2019-05-06T04:44:04.726Z,10.21
2019-05-06T04:46:34.407Z,10.19
2019-05-06T04:48:59.635Z,10.21
2019-05-06T04:51:26.212Z,10.23
2019-05-06T04:53:53.756Z,10.23
2019-05-06T04:56:23.440Z,10.25
2019-05-06T04:58:48.822Z,10.27
2019-05-06T05:01:15.862Z,10.28
2019-05-06T05:03:42.884Z,10.30
2019-05-06T05:06:09.585Z,10.30
2019-05-06T05:08:36.151Z,10.32
2019-05-06T05:11:03.565Z,10.32
2019-05-06T05:13:32.785Z,10.34
2019-05-06T05:15:58.741Z,10.36
2019-05-06T05:18:25.320Z,10.37
2019-05-06T05:20:52.841Z,10.37
2019-05-06T05:23:19.613Z,10.37
2019-05-06T05:25:46.226Z,10.38
2019-05-06T05:28:13.217Z,10.38
2019-05-06T05:30:39.891Z,10.40
2019-05-06T05:33:06.458Z,10.42
2019-05-06T05:35:33.068Z,10.44
2019-05-06T05:37:59.652Z,10.46
2019-05-06T05:40:26.239Z,10.48
2019-05-06T05:42:52.808Z,10.51
2019-05-06T05:45:19.438Z,10.53
2019-05-06T05:47:46.024Z,10.56
2019-05-06T05:50:13.316Z,10.58
2019-05-06T05:52:42.478Z,10.61
2019-05-06T05:55:08.326Z,10.64
2019-05-06T05:57:34.936Z,10.67
2019-05-06T06:00:03.827Z,10.70
2019-05-06T06:02:29.867Z,10.72
2019-05-06T06:04:57.617Z,10.76
2019-05-06T06:07:24.608Z,10.79
2019-05-06T06:09:52.437Z,10.82
2019-05-06T06:12:19.159Z,10.87
2019-05-06T06:14:47.381Z,10.90
2019-05-06T06:17:14.171Z,10.95
2019-05-06T06:19:42.486Z,10.98
2019-05-06T06:22:09.237Z,11.01
2019-05-06T06:24:35.809Z,11.05
2019-05-06T06:27:03.040Z,11.08
2019-05-06T06:29:29.907Z,11.13
2019-05-06T06:31:56.551Z,11.14
2019-05-06T06:34:23.161Z,11.17
2019-05-06T06:36:49.780Z,11.20
2019-05-06T06:39:16.374Z,11.22
2019-05-06T06:41:42.954Z,11.25
2019-05-06T06:44:09.533Z,11.28
2019-05-06T06:46:36.113Z,11.33
2019-05-06T06:49:03.248Z,11.38
2019-05-06T06:51:30.006Z,11.43
2019-05-06T06:53:56.696Z,11.48
2019-05-06T06:56:23.257Z,11.54
2019-05-06T06:58:49.868Z,11.60
2019-05-06T07:01:16.528Z,11.67
2019-05-06T07:03:43.207Z,11.74
2019-05-06T07:06:09.786Z,11.81
2019-05-06T07:08:37.733Z,11.84
2019-05-06T07:11:04.653Z,11.88
2019-05-06T07:13:32.686Z,11.93
2019-05-06T07:15:59.423Z,11.98
2019-05-06T07:18:26.045Z,12.02
2019-05-06T07:20:52.723Z,12.04
2019-05-06T07:23:19.396Z,12.07
2019-05-06T07:25:45.977Z,12.09
2019-05-06T07:28:13.617Z,12.11
2019-05-06T07:30:41.966Z,12.15
2019-05-06T07:33:08.652Z,12.16
2019-05-06T07:35:40.439Z,12.19
2019-05-06T07:38:03.652Z,12.21
2019-05-06T07:40:32.499Z,12.25
2019-05-06T07:42:58.543Z,12.28
2019-05-06T07:45:25.132Z,12.30
2019-05-06T07:47:53.065Z,12.33
2019-05-06T07:50:22.504Z,12.34
2019-05-06T07:52:49.076Z,12.36
2019-05-06T07:55:18.734Z,12.40
2019-05-06T07:57:45.403Z,12.41
2019-05-06T08:00:12.520Z,12.44
2019-05-06T08:02:39.454Z,12.46
2019-05-06T08:05:10.232Z,12.50
2019-05-06T08:07:36.829Z,12.52
2019-05-06T08:10:03.450Z,12.55
2019-05-06T08:12:32.508Z,12.60
2019-05-06T08:14:58.357Z,12.63
2019-05-06T08:17:24.975Z,12.69
2019-05-06T08:19:52.950Z,12.72
2019-05-06T08:22:19.794Z,12.74
2019-05-06T08:24:46.415Z,12.76
2019-05-06T08:27:12.977Z,12.77
2019-05-06T08:29:39.575Z,12.79
2019-05-06T08:32:06.154Z,12.81
2019-05-06T08:34:34.279Z,12.83
2019-05-06T08:37:02.470Z,12.84
2019-05-06T08:39:29.213Z,12.88
2019-05-06T08:41:56.873Z,12.87
2019-05-06T08:44:23.994Z,12.89
2019-05-06T08:46:53.104Z,12.88
2019-05-06T08:49:18.927Z,12.87
2019-05-06T08:51:45.495Z,12.87
2019-05-06T08:54:13.371Z,12.88
2019-05-06T08:56:40.094Z,12.88
2019-05-06T08:59:08.902Z,12.87
2019-05-06T09:01:38.087Z,12.87
2019-05-06T09:04:11.376Z,12.86
2019-05-06T09:06:34.383Z,12.87
2019-05-06T09:09:02.434Z,12.86
2019-05-06T09:11:29.242Z,12.89
2019-05-06T09:13:55.821Z,12.91
2019-05-06T09:16:24.601Z,12.96
2019-05-06T09:18:53.297Z,13.02
2019-05-06T09:21:19.573Z,13.08
2019-05-06T09:23:46.172Z,13.14
2019-05-06T09:26:13.206Z,13.19
2019-05-06T09:28:42.951Z,13.23
2019-05-06T09:31:09.773Z,13.28
2019-05-06T09:33:36.414Z,13.32
2019-05-06T09:36:14.810Z,13.40
2019-05-06T09:38:42.477Z,13.44
2019-05-06T09:41:09.293Z,13.46
2019-05-06T09:43:37.967Z,13.50
2019-05-06T09:46:04.613Z,13.54
2019-05-06T09:48:33.038Z,13.58
2019-05-06T09:50:59.522Z,13.65
2019-05-06T09:53:26.096Z,13.73
2019-05-06T09:55:52.694Z,13.81
2019-05-06T09:58:19.845Z,13.90
2019-05-06T10:00:46.440Z,13.96
2019-05-06T10:03:13.217Z,14.01
2019-05-06T10:05:39.947Z,14.08
2019-05-06T10:08:06.586Z,14.17
2019-05-06T10:10:34.700Z,14.22
2019-05-06T10:13:02.795Z,14.31
2019-05-06T10:15:29.635Z,14.38
2019-05-06T10:17:56.318Z,14.44
2019-05-06T10:20:22.888Z,14.49
2019-05-06T10:22:49.502Z,14.48
2019-05-06T10:25:16.084Z,14.46
2019-05-06T10:27:42.670Z,14.46
2019-05-06T10:30:09.246Z,14.47
2019-05-06T10:32:35.853Z,14.50
2019-05-06T10:35:02.924Z,14.53
2019-05-06T10:37:29.619Z,14.56
2019-05-06T10:39:56.183Z,14.60
2019-05-06T10:42:23.105Z,14.64
2019-05-06T10:44:49.788Z,14.69
2019-05-06T10:47:16.391Z,14.72
2019-05-06T10:49:42.967Z,14.76
2019-05-06T10:52:09.586Z,14.78
2019-05-06T10:54:36.177Z,14.79
2019-05-06T10:57:05.884Z,14.83
2019-05-06T10:59:32.728Z,14.84
2019-05-06T11:01:59.472Z,14.85
2019-05-06T11:04:26.059Z,14.83
2019-05-06T11:06:52.717Z,14.82
2019-05-06T11:09:19.357Z,14.81
2019-05-06T11:11:45.957Z,14.80
2019-05-06T11:14:22.865Z,14.78
2019-05-06T11:16:49.785Z,14.73
2019-05-06T11:19:16.358Z,14.72
2019-05-06T11:21:45.005Z,14.72
2019-05-06T11:24:12.269Z,14.72
2019-05-06T11:26:39.143Z,14.76
2019-05-06T11:29:05.711Z,14.78
2019-05-06T11:31:33.166Z,14.82
2019-05-06T11:34:00.214Z,14.86
2019-05-06T11:36:26.889Z,14.90
2019-05-06T11:38:53.462Z,14.92
2019-05-06T11:41:20.058Z,14.93
2019-05-06T11:43:46.701Z,14.92
2019-05-06T11:46:13.276Z,14.94
2019-05-06T11:48:39.874Z,14.95
2019-05-06T11:51:06.442Z,14.96
2019-05-06T11:53:33.056Z,14.98
2019-05-06T11:56:01.939Z,14.98
2019-05-06T11:58:27.945Z,14.98
2019-05-06T12:00:54.540Z,14.97
2019-05-06T12:03:22.909Z,14.96
2019-05-06T12:05:49.504Z,14.95
2019-05-06T12:08:16.115Z,14.93
2019-05-06T12:10:42.698Z,14.93
2019-05-06T12:13:09.309Z,14.92
2019-05-06T12:15:35.886Z,14.91
2019-05-06T12:18:03.767Z,14.91
2019-05-06T12:20:32.813Z,14.88
2019-05-06T12:22:59.056Z,14.87
2019-05-06T12:25:25.669Z,14.86
2019-05-06T12:27:52.717Z,14.85
2019-05-06T12:30:19.366Z,14.85
2019-05-06T12:32:45.959Z,14.86
2019-05-06T12:35:12.586Z,14.85
2019-05-06T12:37:39.269Z,14.85
2019-05-06T12:40:05.887Z,14.84
2019-05-06T12:42:33.180Z,14.82
2019-05-06T12:45:03.288Z,14.79
2019-05-06T12:47:28.219Z,14.77
2019-05-06T12:49:55.117Z,14.74
2019-05-06T12:52:23.113Z,14.74
2019-05-06T12:54:50.045Z,14.72
2019-05-06T12:57:16.674Z,14.74
2019-05-06T12:59:43.288Z,14.76
2019-05-06T13:02:09.867Z,14.77
2019-05-06T13:04:50.262Z,14.76
2019-05-06T13:07:04.884Z,14.76
2019-05-06T13:09:33.229Z,14.77
2019-05-06T13:11:59.790Z,14.76
2019-05-06T13:14:26.394Z,14.76
2019-05-06T13:16:53.370Z,14.77
2019-05-06T13:19:22.619Z,14.79
2019-05-06T13:21:48.443Z,14.80
2019-05-06T13:24:15.045Z,14.82
2019-05-06T13:26:43.046Z,14.84
2019-05-06T13:29:09.874Z,14.84
2019-05-06T13:31:36.484Z,14.83
2019-05-06T13:34:03.128Z,14.81
2019-05-06T13:36:29.844Z,14.80
2019-05-06T13:39:09.446Z,14.78
2019-05-06T13:41:24.753Z,14.77
2019-05-06T13:43:53.945Z,14.74
2019-05-06T13:46:19.663Z,14.71
2019-05-06T13:48:46.236Z,14.66
2019-05-06T13:51:12.843Z,14.64
2019-05-06T13:53:43.424Z,14.63
2019-05-06T13:56:07.768Z,14.60
2019-05-06T13:58:34.317Z,14.58
2019-05-06T14:01:02.960Z,14.55
2019-05-06T14:03:29.243Z,14.52
2019-05-06T14:05:55.873Z,14.51
2019-05-06T14:08:22.484Z,14.47
2019-05-06T14:10:57.484Z,14.44
2019-05-06T14:13:17.380Z,14.39
2019-05-06T14:15:43.993Z,14.36
2019-05-06T14:18:13.099Z,14.34
2019-05-06T14:20:38.973Z,14.29
2019-05-06T14:23:05.546Z,14.26
2019-05-06T14:25:33.166Z,14.23
2019-05-06T14:27:59.912Z,14.20
2019-05-06T14:30:26.479Z,14.17
2019-05-06T14:32:53.089Z,14.14
2019-05-06T14:35:19.657Z,14.14
2019-05-06T14:37:46.260Z,14.11
2019-05-06T14:40:12.843Z,14.09
2019-05-06T14:42:39.455Z,14.05
2019-05-06T14:45:06.038Z,14.02
2019-05-06T14:47:32.876Z,13.99
2019-05-06T14:49:59.490Z,13.95
2019-05-06T14:52:26.099Z,13.89
2019-05-06T14:54:53.381Z,13.85
2019-05-06T14:57:22.589Z,13.80
2019-05-06T14:59:50.927Z,13.73
2019-05-06T15:02:16.868Z,13.66
2019-05-06T15:04:43.775Z,13.62
2019-05-06T15:07:12.515Z,13.57
2019-05-06T15:09:53.703Z,13.55
2019-05-06T15:12:07.119Z,13.53
2019-05-06T15:14:33.693Z,13.53
2019-05-06T15:17:02.221Z,13.53
2019-05-06T15:19:28.588Z,13.52
2019-05-06T15:21:55.181Z,13.52
2019-05-06T15:24:24.287Z,13.53
2019-05-06T15:26:52.134Z,13.54
2019-05-06T15:29:18.404Z,13.54
2019-05-06T15:31:45.813Z,13.55
2019-05-06T15:34:13.077Z,13.54
2019-05-06T15:36:39.828Z,13.55
2019-05-06T15:39:06.435Z,13.54
2019-05-06T15:41:33.005Z,13.54
2019-05-06T15:43:59.612Z,13.54
2019-05-06T15:46:26.178Z,13.54
2019-05-06T15:48:53.023Z,13.54
2019-05-06T15:51:22.203Z,13.54
2019-05-06T15:53:49.081Z,13.53
2019-05-06T15:56:15.653Z,13.53
2019-05-06T15:58:42.472Z,13.53
2019-05-06T16:01:09.184Z,13.52
2019-05-06T16:03:35.839Z,13.52
2019-05-06T16:06:02.409Z,13.54
2019-05-06T16:08:29.008Z,13.52
2019-05-06T16:10:58.706Z,13.53
2019-05-06T16:13:23.924Z,13.53
2019-05-06T16:15:50.494Z,13.54
2019-05-06T16:18:17.134Z,13.52
2019-05-06T16:20:43.719Z,13.51
2019-05-06T16:23:10.326Z,13.50
2019-05-06T16:25:36.910Z,13.49
2019-05-06T16:28:03.540Z,13.51
2019-05-06T16:30:30.117Z,13.51
2019-05-06T16:32:57.770Z,13.48
2019-05-06T16:35:24.384Z,13.44
2019-05-06T16:37:50.980Z,13.39
2019-05-06T16:40:17.548Z,13.32
2019-05-06T16:42:46.001Z,13.26
2019-05-06T16:45:12.700Z,13.24
2019-05-06T16:47:39.311Z,13.21
2019-05-06T16:50:05.907Z,13.18
2019-05-06T16:52:33.368Z,13.14
2019-05-06T16:55:00.353Z,13.12
2019-05-06T16:57:26.934Z,13.10
2019-05-06T16:59:53.559Z,13.06
2019-05-06T17:02:20.130Z,12.99
2019-05-06T17:04:46.753Z,12.96
2019-05-06T17:07:13.330Z,12.91
2019-05-06T17:09:39.926Z,12.87
2019-05-06T17:12:06.671Z,12.82
2019-05-06T17:14:33.319Z,12.77
2019-05-06T17:16:59.928Z,12.74
2019-05-06T17:19:26.529Z,12.72
2019-05-06T17:21:53.101Z,12.69
2019-05-06T17:24:21.884Z,12.69
2019-05-06T17:26:48.010Z,12.68
2019-05-06T17:29:14.624Z,12.66
2019-05-06T17:31:42.366Z,12.63
2019-05-06T17:34:09.099Z,12.61
2019-05-06T17:36:35.686Z,12.59
2019-05-06T17:39:02.880Z,12.56
2019-05-06T17:41:43.351Z,12.53
2019-05-06T17:43:57.841Z,12.50
2019-05-06T17:46:24.411Z,12.50
2019-05-06T17:48:52.853Z,12.47
2019-05-06T17:51:19.305Z,12.45
2019-05-06T17:53:45.907Z,12.43
2019-05-06T17:56:12.748Z,12.42
2019-05-06T17:58:39.316Z,12.39
2019-05-06T18:01:05.933Z,12.38
2019-05-06T18:03:32.732Z,12.38
2019-05-06T18:05:59.453Z,12.37
2019-05-06T18:08:26.058Z,12.35
2019-05-06T18:10:52.650Z,12.34
2019-05-06T18:13:19.325Z,12.33
2019-05-06T18:15:45.961Z,12.32
2019-05-06T18:18:13.100Z,12.30
2019-05-06T18:20:39.913Z,12.32
2019-05-06T18:23:06.507Z,12.30
2019-05-06T18:25:33.154Z,12.28
2019-05-06T18:27:59.781Z,12.27
2019-05-06T18:30:33.695Z,12.26
2019-05-06T18:32:54.689Z,12.24
2019-05-06T18:35:23.065Z,12.22
2019-05-06T18:37:52.068Z,12.20
2019-05-06T18:40:18.121Z,12.18
2019-05-06T18:42:44.704Z,12.17
2019-05-06T18:45:12.333Z,12.17
2019-05-06T18:47:39.022Z,12.13
2019-05-06T18:50:05.641Z,12.11
2019-05-06T18:52:32.711Z,12.09
2019-05-06T18:54:59.369Z,12.08
2019-05-06T18:57:25.964Z,12.07
2019-05-06T18:59:53.348Z,12.04
2019-05-06T19:02:20.124Z,12.02
2019-05-06T19:04:46.757Z,11.98
2019-05-06T19:07:16.831Z,11.96
2019-05-06T19:09:42.417Z,11.94
2019-05-06T19:12:09.224Z,11.91
2019-05-06T19:14:35.803Z,11.90
2019-05-06T19:17:02.886Z,11.91
2019-05-06T19:19:29.501Z,11.91
2019-05-06T19:21:56.091Z,11.92
2019-05-06T19:24:22.813Z,11.92
2019-05-06T19:26:49.445Z,11.92
2019-05-06T19:29:16.028Z,11.93
2019-05-06T19:31:45.073Z,11.96
2019-05-06T19:34:12.949Z,11.93
2019-05-06T19:36:39.283Z,11.96
2019-05-06T19:39:05.850Z,11.94
2019-05-06T19:41:33.207Z,11.96
2019-05-06T19:44:01.948Z,11.97
2019-05-06T19:46:28.237Z,11.97
2019-05-06T19:48:54.824Z,11.97
2019-05-06T19:51:22.499Z,11.97
2019-05-06T19:53:49.721Z,11.96
2019-05-06T19:56:16.302Z,11.94
2019-05-06T19:58:43.040Z,11.93
2019-05-06T20:01:09.795Z,11.93
2019-05-06T20:03:36.469Z,11.93
2019-05-06T20:06:03.056Z,11.92
2019-05-06T20:08:29.679Z,11.94
2019-05-06T20:10:56.540Z,11.94
2019-05-06T20:13:23.285Z,11.96
2019-05-06T20:15:52.006Z,11.97
2019-05-06T20:18:18.223Z,11.98
2019-05-06T20:20:44.807Z,11.99
2019-05-06T20:23:12.536Z,12.00
2019-05-06T20:25:39.348Z,12.01
2019-05-06T20:28:05.970Z,12.01
2019-05-06T20:30:32.755Z,12.04
2019-05-06T20:32:59.427Z,12.05
2019-05-06T20:35:26.002Z,12.05
2019-05-06T20:37:53.387Z,12.06
2019-05-06T20:40:22.523Z,12.05
2019-05-06T20:42:48.518Z,12.06
2019-05-06T20:45:15.092Z,12.06
2019-05-06T20:47:42.895Z,12.06
2019-05-06T20:50:09.679Z,12.06
2019-05-06T20:52:36.275Z,12.07
2019-05-06T20:55:03.016Z,12.07
2019-05-06T20:57:29.640Z,12.07
2019-05-06T20:59:56.230Z,12.07
2019-05-06T21:02:25.643Z,12.08
2019-05-06T21:04:51.142Z,12.07
2019-05-06T21:07:17.752Z,12.07
2019-05-06T21:09:44.331Z,12.09
2019-05-06T21:12:10.940Z,12.09
2019-05-06T21:14:37.517Z,12.11
2019-05-06T21:17:04.090Z,12.12
2019-05-06T21:19:32.931Z,12.13
2019-05-06T21:21:59.005Z,12.14
2019-05-06T21:24:25.639Z,12.16
2019-05-06T21:26:53.164Z,12.17
2019-05-06T21:29:20.005Z,12.18
2019-05-06T21:31:46.622Z,12.18
2019-05-06T21:34:13.230Z,12.19
2019-05-06T21:36:42.055Z,12.20
2019-05-06T21:39:08.127Z,12.18
2019-05-06T21:41:34.694Z,12.18
2019-05-06T21:44:02.435Z,12.18
2019-05-06T21:46:29.170Z,12.19
2019-05-06T21:48:55.788Z,12.18
2019-05-06T21:51:22.365Z,12.18
2019-05-06T21:53:48.958Z,12.18
2019-05-06T21:56:15.552Z,12.16
2019-05-06T21:58:42.783Z,12.13
2019-05-06T22:01:09.508Z,12.12
2019-05-06T22:03:36.116Z,12.08
2019-05-06T22:06:02.700Z,12.05
2019-05-06T22:08:29.318Z,12.03
2019-05-06T22:10:55.899Z,12.02
2019-05-06T22:13:22.498Z,12.00
2019-05-06T22:15:49.068Z,12.01
2019-05-06T22:18:15.675Z,12.01
2019-05-06T22:20:42.363Z,12.00
2019-05-06T22:23:09.055Z,12.00
2019-05-06T22:25:35.625Z,11.99
2019-05-06T22:28:02.501Z,12.00
2019-05-06T22:30:29.188Z,12.00
2019-05-06T22:32:55.795Z,12.00
2019-05-06T22:35:23.074Z,12.00
2019-05-06T22:37:52.914Z,12.01
2019-05-06T22:40:19.409Z,12.00
2019-05-06T22:42:46.001Z,11.99
2019-05-06T22:45:12.705Z,11.99
2019-05-06T22:47:39.351Z,12.00
2019-05-06T22:50:06.748Z,12.00
2019-05-06T22:52:33.321Z,11.98
2019-05-06T22:55:03.731Z,11.98
2019-05-06T22:57:28.225Z,11.97
2019-05-06T22:59:54.834Z,11.95
2019-05-06T23:02:22.591Z,11.96
2019-05-06T23:04:49.293Z,11.96
2019-05-06T23:07:15.870Z,11.95
2019-05-06T23:09:42.704Z,11.95
2019-05-06T23:12:09.398Z,11.92
2019-05-06T23:14:37.317Z,11.91
2019-05-06T23:17:04.015Z,11.91
2019-05-06T23:19:31.811Z,11.90
2019-05-06T23:21:58.472Z,11.89
2019-05-06T23:24:25.087Z,11.89
2019-05-06T23:26:52.704Z,11.89
2019-05-06T23:29:22.309Z,11.89
2019-05-06T23:31:48.314Z,11.89
2019-05-06T23:34:14.948Z,11.88
2019-05-06T23:36:41.720Z,11.87
2019-05-06T23:39:09.838Z,11.85
2019-05-06T23:41:36.397Z,11.86
2019-05-06T23:44:02.990Z,11.84
2019-05-06T23:46:29.572Z,11.85
2019-05-06T23:48:56.150Z,11.83
2019-05-06T23:51:22.794Z,11.82
2019-05-06T23:53:49.366Z,11.82
2019-05-06T23:56:15.946Z,11.81
2019-05-06T23:58:42.923Z,11.79
